CheckWX is a tool to help pilots better visualize weather data.  It is not intended as a substitute for an official pre-flight weather briefing.

05:54:14 UTC

KMOD TAF
Modesto City-Co-Harry Sham Field Airport
Modesto, California, USA
KMOD 260525Z 2606/2706 32009KT P6SM SKC FM261200 VRB03KT P6SM FEW250 FM261500 33006KT P6SM FEW250

Aug-26@
06:00 UTC

Aug-26 @ 06:00 UTC

Aug-26@
12:00 UTC

Aug-26 @ 12:00 UTC

KMOD 260525Z 2606/2706 32009KT P6SM SKC
Wind
  • 320° at 9 KTS
Cloud Levels
  • Clear skies

Aug-26@
12:00 UTC

Aug-26 @ 12:00 UTC

Aug-26@
15:00 UTC

Aug-26 @ 15:00 UTC

FM261200 VRB03KT P6SM FEW250

From

From Standard forecast or significant change

Wind
  • Variable at 3 KTS
Cloud Levels
  • Few at 25,000' AGL

Aug-26@
15:00 UTC

Aug-26 @ 15:00 UTC

Aug-27@
06:00 UTC

Aug-27 @ 06:00 UTC

FM261500 33006KT P6SM FEW250

From

From Standard forecast or significant change

Wind
  • 330° at 6 KTS
Cloud Levels
  • Few at 25,000' AGL